Time;durP1;ratioP1;P1;durP2;ratioP2;P2;SDS_P1;SDS_P2;PMS_P1;PMS_P2;Temp;Humidity;BMP_temperature;BMP_pressure;BME280_temperature;BME280_humidity;BME280_pressure;Samples;Min_cycle;Max_cycle;Signal;HPM_P1;HPM_P2
2021/06/26 00:01:26;;;;;;;7.33;2.92;;;;;;;24.60;78.74;100302.36;1706406;82;20965;-45
2021/06/26 00:03:52;;;;;;;13.15;3.52;;;;;;;24.57;79.37;100304.10;1729603;81;21023;-45
2021/06/26 00:06:19;;;;;;;6.37;3.30;;;;;;;24.55;79.80;100306.16;1711823;82;21515;-46
2021/06/26 00:11:26;;;;;;;13.15;3.52;;;;;;;24.54;80.97;100299.00;1791974;78;23996;-45
2021/06/26 00:13:52;;;;;;;12.63;3.42;;;;;;;24.47;81.58;100296.67;1773471;79;20967;-45
2021/06/26 00:16:19;;;;;;;12.23;3.37;;;;;;;24.41;82.15;100294.99;1771782;79;20961;-44
2021/06/26 00:18:45;;;;;;;8.25;3.40;;;;;;;24.39;82.65;100301.16;1774556;80;20994;-46
2021/06/26 00:21:12;;;;;;;8.40;3.70;;;;;;;24.36;83.16;100296.58;1782259;79;20944;-45
2021/06/26 00:23:39;;;;;;;9.28;4.45;;;;;;;24.34;83.27;100301.36;1755312;80;21002;-46
2021/06/26 00:26:05;;;;;;;7.45;3.08;;;;;;;24.30;83.91;100310.43;1756878;80;21502;-45
2021/06/26 00:28:34;;;;;;;7.00;4.60;;;;;;;24.29;84.49;100309.23;1757557;80;20912;-45
2021/06/26 00:31:00;;;;;;;7.90;3.67;;;;;;;24.28;85.22;100311.12;1757328;80;20963;-46
2021/06/26 00:33:27;;;;;;;10.15;4.17;;;;;;;24.27;85.38;100308.59;1752956;80;20955;-44
2021/06/26 00:35:53;;;;;;;12.07;3.27;;;;;;;24.27;86.04;100309.44;1758207;80;20974;-45
2021/06/26 00:38:20;;;;;;;9.55;4.00;;;;;;;24.25;85.97;100306.05;1757208;80;21793;-45
2021/06/26 00:40:46;;;;;;;8.45;3.58;;;;;;;24.22;86.97;100304.19;1759128;80;20987;-45
2021/06/26 00:43:13;;;;;;;9.38;3.50;;;;;;;24.17;87.34;100298.79;1756611;80;20958;-45
2021/06/26 00:45:40;;;;;;;7.70;3.27;;;;;;;24.13;88.06;100293.36;1759200;80;21051;-44
2021/06/26 00:48:07;;;;;;;13.00;4.05;;;;;;;24.11;88.43;100294.05;1760435;80;21011;-44
2021/06/26 00:50:33;;;;;;;8.40;4.03;;;;;;;24.09;88.78;100290.69;1756603;80;20932;-42
2021/06/26 00:53:01;;;;;;;13.03;4.20;;;;;;;24.07;88.88;100289.18;1760515;80;20952;-44
2021/06/26 00:55:28;;;;;;;12.70;4.55;;;;;;;24.03;89.19;100287.84;1758625;80;21547;-45
2021/06/26 00:57:57;;;;;;;8.63;3.25;;;;;;;24.01;89.33;100291.25;1761211;80;21104;-45
2021/06/26 01:00:25;;;;;;;8.13;4.05;;;;;;;24.01;90.02;100285.80;1754040;80;21014;-45
2021/06/26 01:02:52;;;;;;;11.73;3.65;;;;;;;23.97;90.68;100297.06;1764735;80;20995;-44
2021/06/26 01:05:19;;;;;;;6.28;2.95;;;;;;;23.94;90.39;100296.08;1757601;80;20987;-45
2021/06/26 01:07:47;;;;;;;11.95;3.95;;;;;;;23.92;90.91;100295.41;1750689;80;21458;-44
2021/06/26 01:10:14;;;;;;;9.20;3.95;;;;;;;23.90;91.10;100297.97;1763069;80;20956;-41
2021/06/26 01:12:41;;;;;;;9.18;3.15;;;;;;;23.90;91.30;100304.26;1753399;80;20972;-46
2021/06/26 01:15:10;;;;;;;6.92;3.33;;;;;;;23.88;91.34;100296.78;1753425;80;21007;-42
2021/06/26 01:17:39;;;;;;;8.30;3.67;;;;;;;23.87;91.98;100298.34;1758972;80;20959;-45
2021/06/26 01:20:08;;;;;;;9.20;3.67;;;;;;;23.85;92.35;100296.30;1762581;80;20943;-43
2021/06/26 01:22:42;;;;;;;9.43;3.02;;;;;;;23.82;92.12;100292.59;1753691;80;20947;-43
2021/06/26 01:25:07;;;;;;;6.40;2.87;;;;;;;23.82;92.75;100302.13;1753956;80;21082;-45
2021/06/26 01:27:34;;;;;;;5.47;3.17;;;;;;;23.81;93.01;100303.97;1757742;80;21491;-43
2021/06/26 01:30:00;;;;;;;6.28;3.50;;;;;;;23.81;92.94;100308.57;1753138;80;20920;-44
2021/06/26 01:32:27;;;;;;;12.03;4.17;;;;;;;23.78;92.91;100308.42;1751724;80;20939;-43
2021/06/26 01:34:54;;;;;;;9.23;3.50;;;;;;;23.74;93.03;100310.66;1759643;80;20943;-45
2021/06/26 01:37:21;;;;;;;5.37;3.47;;;;;;;23.73;93.76;100313.55;1751648;80;20967;-44
2021/06/26 01:39:47;;;;;;;7.17;3.02;;;;;;;23.72;93.59;100314.08;1757998;80;21000;-43
2021/06/26 01:42:15;;;;;;;6.72;3.42;;;;;;;23.74;94.27;100308.46;1738552;80;21529;-47
2021/06/26 01:44:41;;;;;;;14.10;4.37;;;;;;;23.73;93.76;100295.34;1756177;80;21022;-45
2021/06/26 01:47:08;;;;;;;8.95;3.35;;;;;;;23.74;94.24;100298.94;1762922;80;21055;-43
2021/06/26 01:49:37;;;;;;;7.78;3.10;;;;;;;23.73;93.91;100302.67;1758337;80;21539;-45
2021/06/26 01:52:04;;;;;;;9.90;3.33;;;;;;;23.70;92.51;100301.64;1759010;80;20983;-45
2021/06/26 01:54:31;;;;;;;6.20;3.02;;;;;;;23.64;90.59;100292.33;1762618;80;21435;-44
2021/06/26 01:56:59;;;;;;;5.95;2.90;;;;;;;23.59;89.27;100281.66;1756954;80;21506;-43
2021/06/26 01:59:26;;;;;;;5.53;3.05;;;;;;;23.55;88.64;100283.34;1753478;80;21427;-43
2021/06/26 02:01:53;;;;;;;5.20;2.42;;;;;;;23.58;87.53;100281.30;1759764;80;21026;-44
2021/06/26 02:04:20;;;;;;;7.90;3.37;;;;;;;23.59;87.17;100278.41;1753986;80;20964;-44
2021/06/26 02:06:46;;;;;;;5.05;2.90;;;;;;;23.59;86.58;100286.58;1748074;80;21000;-45
2021/06/26 02:09:13;;;;;;;5.25;2.85;;;;;;;23.58;86.51;100288.94;1758184;80;20952;-45
2021/06/26 02:11:40;;;;;;;6.60;3.00;;;;;;;23.58;86.60;100294.38;1757517;80;20956;-44
2021/06/26 02:14:06;;;;;;;8.50;2.47;;;;;;;23.58;86.36;100293.02;1753957;80;20983;-43
2021/06/26 02:16:33;;;;;;;4.00;2.37;;;;;;;23.53;86.07;100287.27;1759329;80;20960;-46
2021/06/26 02:18:59;;;;;;;10.43;3.65;;;;;;;23.51;87.48;100275.23;1758731;80;21021;-43
2021/06/26 02:21:26;;;;;;;8.60;2.85;;;;;;;23.55;87.54;100270.27;1759195;80;20937;-42
2021/06/26 02:23:53;;;;;;;5.25;2.80;;;;;;;23.56;85.19;100278.75;1751277;80;21011;-40
2021/06/26 02:26:19;;;;;;;8.00;4.22;;;;;;;23.53;85.36;100269.06;1753780;80;20973;-40
2021/06/26 02:28:46;;;;;;;5.90;3.20;;;;;;;23.51;85.78;100271.14;1757456;80;21491;-41
2021/06/26 02:31:13;;;;;;;10.13;3.72;;;;;;;23.50;85.76;100260.43;1748497;80;21061;-40
2021/06/26 02:33:39;;;;;;;7.90;3.25;;;;;;;23.51;85.86;100259.39;1760455;80;20983;-44
2021/06/26 02:36:06;;;;;;;4.67;2.65;;;;;;;23.49;85.56;100260.95;1757316;80;20972;-45
2021/06/26 02:38:33;;;;;;;13.60;5.10;;;;;;;23.49;86.08;100256.03;1746206;80;21003;-42
2021/06/26 02:40:59;;;;;;;6.45;3.08;;;;;;;23.47;86.30;100252.11;1758224;80;20987;-43
2021/06/26 02:43:26;;;;;;;7.75;2.75;;;;;;;23.45;87.08;100248.72;1747496;80;20985;-45
2021/06/26 02:45:53;;;;;;;5.35;2.52;;;;;;;23.46;86.86;100240.04;1761608;80;20951;-43
2021/06/26 02:48:19;;;;;;;5.08;2.55;;;;;;;23.45;86.94;100251.44;1758949;80;21573;-42
2021/06/26 02:50:47;;;;;;;4.12;2.52;;;;;;;23.45;87.53;100257.40;1755376;81;20959;-41
2021/06/26 02:53:13;;;;;;;5.28;2.75;;;;;;;23.44;88.13;100259.28;1753159;80;20979;-43
2021/06/26 02:55:40;;;;;;;9.85;2.80;;;;;;;23.40;87.20;100249.77;1746663;80;20948;-42
2021/06/26 02:58:06;;;;;;;7.00;3.42;;;;;;;23.37;87.46;100243.33;1759951;80;20990;-42
2021/06/26 03:00:34;;;;;;;5.33;2.47;;;;;;;23.36;87.81;100233.49;1762684;80;20970;-42
2021/06/26 03:03:01;;;;;;;8.80;2.90;;;;;;;23.36;89.06;100230.77;1761324;80;21517;-43
2021/06/26 03:05:27;;;;;;;10.32;3.20;;;;;;;23.33;89.14;100233.82;1758442;80;20951;-41
2021/06/26 03:07:55;;;;;;;13.50;3.62;;;;;;;23.32;89.68;100231.62;1757473;80;21471;-43
2021/06/26 03:10:22;;;;;;;5.78;3.45;;;;;;;23.36;90.55;100241.65;1760619;80;21468;-45
2021/06/26 03:12:50;;;;;;;6.40;2.85;;;;;;;23.36;90.77;100239.42;1756441;80;20923;-42
2021/06/26 03:15:17;;;;;;;6.58;3.02;;;;;;;23.33;91.68;100239.27;1749174;80;20950;-41
2021/06/26 03:17:43;;;;;;;6.25;2.60;;;;;;;23.33;92.46;100242.86;1750584;80;20998;-42
2021/06/26 03:20:10;;;;;;;3.12;2.40;;;;;;;23.33;93.16;100242.86;1756032;80;21867;-44
2021/06/26 03:22:37;;;;;;;8.15;3.37;;;;;;;23.33;92.98;100241.50;1759139;80;20979;-40
2021/06/26 03:25:05;;;;;;;5.28;3.15;;;;;;;23.36;92.44;100245.73;1753529;80;21086;-42
2021/06/26 03:27:33;;;;;;;7.85;3.25;;;;;;;23.36;92.70;100248.94;1760427;80;21406;-43
2021/06/26 03:30:00;;;;;;;4.87;2.80;;;;;;;23.37;92.75;100247.93;1756094;80;20991;-42
2021/06/26 03:32:26;;;;;;;6.58;3.25;;;;;;;23.40;93.39;100251.13;1752702;80;21011;-43
2021/06/26 03:34:53;;;;;;;8.55;3.70;;;;;;;23.44;93.85;100250.28;1758349;80;21484;-42
2021/06/26 03:37:20;;;;;;;8.43;3.10;;;;;;;23.45;93.90;100241.92;1753517;80;20995;-42
2021/06/26 03:39:46;;;;;;;5.72;3.62;;;;;;;23.49;94.28;100236.98;1739239;80;21450;-42
2021/06/26 03:42:14;;;;;;;11.90;3.67;;;;;;;23.53;94.54;100230.98;1751880;80;20919;-43
2021/06/26 03:44:41;;;;;;;8.53;3.20;;;;;;;23.61;94.62;100234.19;1753130;80;21022;-43
2021/06/26 03:47:08;;;;;;;7.58;3.30;;;;;;;23.67;94.50;100230.73;1753452;80;21002;-43
2021/06/26 03:49:37;;;;;;;8.53;3.75;;;;;;;23.71;94.08;100233.92;1752018;80;21564;-42
2021/06/26 03:52:05;;;;;;;4.83;3.08;;;;;;;23.73;93.52;100232.75;1742130;80;21012;-43
2021/06/26 03:54:31;;;;;;;5.20;3.45;;;;;;;23.75;92.85;100228.50;1753346;80;20956;-44
2021/06/26 03:56:58;;;;;;;7.25;2.83;;;;;;;23.74;92.54;100225.45;1749100;80;21497;-48
2021/06/26 03:59:25;;;;;;;5.72;3.60;;;;;;;23.75;92.77;100232.05;1757713;80;20924;-42
2021/06/26 04:01:52;;;;;;;6.95;3.40;;;;;;;23.76;93.44;100228.81;1750252;80;20994;-43
2021/06/26 04:04:20;;;;;;;7.90;4.03;;;;;;;23.76;92.97;100234.26;1761349;80;21690;-41
2021/06/26 04:06:47;;;;;;;9.93;4.20;;;;;;;23.74;93.44;100232.26;1754629;80;20977;-41
2021/06/26 04:09:14;;;;;;;12.88;4.58;;;;;;;23.74;92.72;100227.66;1756817;80;21015;-43
2021/06/26 04:11:41;;;;;;;5.67;3.50;;;;;;;23.78;93.24;100219.12;1754632;80;21075;-48
2021/06/26 04:14:07;;;;;;;7.90;3.25;;;;;;;23.80;94.36;100215.19;1749373;80;21334;-46
2021/06/26 04:16:34;;;;;;;7.10;3.90;;;;;;;23.84;94.42;100217.89;1747078;80;21439;-48
2021/06/26 04:19:00;;;;;;;5.00;3.87;;;;;;;23.88;94.06;100223.80;1726844;81;21061;-45
2021/06/26 04:21:28;;;;;;;13.58;4.42;;;;;;;23.93;94.86;100224.94;1674866;83;21835;-43
2021/06/26 04:23:54;;;;;;;7.40;3.33;;;;;;;23.99;94.46;100222.02;1702633;83;21051;-42
2021/06/26 04:26:21;;;;;;;7.10;3.58;;;;;;;24.02;93.51;100220.81;1695822;83;21510;-47
2021/06/26 04:28:47;;;;;;;7.47;3.27;;;;;;;24.03;93.60;100219.25;1704576;83;21995;-46
2021/06/26 04:31:14;;;;;;;8.03;4.37;;;;;;;24.05;94.10;100216.35;1696210;83;21005;-43
2021/06/26 04:33:41;;;;;;;7.17;3.33;;;;;;;24.07;94.46;100213.78;1707316;83;20980;-46
2021/06/26 04:36:13;;;;;;;8.08;3.58;;;;;;;24.09;92.96;100203.55;1712378;82;21525;-45
2021/06/26 04:38:37;;;;;;;7.10;3.62;;;;;;;24.10;92.70;100209.84;1707186;82;21470;-42
2021/06/26 04:41:03;;;;;;;6.45;3.77;;;;;;;24.11;93.53;100211.52;1704180;82;20960;-44
2021/06/26 04:43:30;;;;;;;9.65;4.05;;;;;;;24.13;93.90;100202.66;1715255;82;21506;-45
2021/06/26 04:45:57;;;;;;;12.70;4.50;;;;;;;24.18;93.86;100212.48;1699685;83;21400;-41
2021/06/26 04:48:27;;;;;;;4.25;3.40;;;;;;;24.22;92.77;100203.41;1711900;82;20965;-53
2021/06/26 04:50:53;;;;;;;6.83;3.33;;;;;;;24.26;93.53;100202.86;1711068;82;20987;-44
2021/06/26 04:53:19;;;;;;;6.22;3.52;;;;;;;24.31;93.80;100190.05;1708033;82;21042;-44
2021/06/26 04:55:51;;;;;;;10.88;3.67;;;;;;;24.36;95.41;100184.37;1694328;83;20960;-43
2021/06/26 04:58:14;;;;;;;9.20;3.85;;;;;;;24.43;95.30;100186.36;1692212;83;21823;-44
2021/06/26 05:00:43;;;;;;;9.53;4.05;;;;;;;24.49;93.89;100184.27;1705583;83;21031;-44
2021/06/26 05:03:09;;;;;;;10.78;4.53;;;;;;;24.54;93.36;100185.91;1691590;84;21067;-43
2021/06/26 05:05:36;;;;;;;7.78;3.95;;;;;;;24.58;94.45;100180.43;1724763;81;21013;-43
2021/06/26 05:08:03;;;;;;;5.45;3.90;;;;;;;24.64;94.02;100180.19;1723887;81;20982;-43
2021/06/26 05:10:31;;;;;;;6.92;4.05;;;;;;;24.68;92.30;100176.06;1720530;82;20971;-44
2021/06/26 05:12:58;;;;;;;7.67;4.67;;;;;;;24.72;93.34;100178.23;1718102;81;20987;-42
2021/06/26 05:15:26;;;;;;;8.63;3.90;;;;;;;24.77;93.85;100176.27;1688493;83;20972;-45
2021/06/26 05:17:52;;;;;;;8.25;5.45;;;;;;;24.82;93.79;100176.55;1697280;83;20982;-44
2021/06/26 05:20:19;;;;;;;6.47;3.90;;;;;;;24.89;93.60;100173.92;1704941;83;21005;-44
2021/06/26 05:22:46;;;;;;;13.62;4.37;;;;;;;24.94;92.00;100179.64;1701785;83;21071;-45
2021/06/26 05:25:13;;;;;;;6.47;3.90;;;;;;;25.00;94.49;100177.53;1697781;83;21090;-43
2021/06/26 05:27:40;;;;;;;5.22;3.75;;;;;;;25.05;93.63;100173.72;1691008;83;21023;-44
2021/06/26 05:30:08;;;;;;;11.63;4.12;;;;;;;25.09;92.30;100179.09;1701459;83;21000;-43
2021/06/26 05:32:34;;;;;;;8.95;4.50;;;;;;;25.13;92.76;100184.50;1695419;83;21036;-45
2021/06/26 05:35:01;;;;;;;8.38;4.83;;;;;;;25.17;91.83;100185.82;1701484;82;21545;-42
2021/06/26 05:37:27;;;;;;;8.33;4.40;;;;;;;25.19;91.45;100175.57;1716671;82;20971;-44
2021/06/26 05:39:54;;;;;;;15.38;4.45;;;;;;;25.23;90.57;100185.07;1709797;82;20944;-42
2021/06/26 05:42:21;;;;;;;7.95;4.35;;;;;;;25.25;90.76;100187.09;1711284;82;21000;-44
2021/06/26 05:44:47;;;;;;;9.43;4.83;;;;;;;25.29;92.57;100188.06;1715666;82;20935;-44
2021/06/26 05:47:14;;;;;;;9.28;5.05;;;;;;;25.31;91.80;100192.30;1716861;82;21498;-45
2021/06/26 05:49:41;;;;;;;10.43;4.70;;;;;;;25.33;91.12;100196.20;1723162;81;21532;-43
2021/06/26 05:52:08;;;;;;;10.35;4.92;;;;;;;25.33;93.14;100197.57;1693448;83;21051;-42
2021/06/26 05:54:34;;;;;;;6.97;4.33;;;;;;;25.34;92.54;100195.99;1694116;83;21545;-43
2021/06/26 05:57:02;;;;;;;5.75;3.62;;;;;;;25.38;93.02;100187.77;1695893;83;20981;-45
2021/06/26 05:59:29;;;;;;;9.73;5.87;;;;;;;25.41;93.92;100186.00;1695348;83;20983;-42
2021/06/26 06:01:55;;;;;;;7.50;4.85;;;;;;;25.46;94.40;100183.53;1700385;83;21000;-43
2021/06/26 06:04:22;;;;;;;9.60;4.87;;;;;;;25.51;93.54;100181.59;1708691;82;21011;-45
2021/06/26 06:06:49;;;;;;;7.70;4.80;;;;;;;25.53;93.46;100176.80;1711948;82;20980;-45
2021/06/26 06:09:15;;;;;;;8.10;3.85;;;;;;;25.57;94.26;100179.44;1706790;82;21000;-46
2021/06/26 06:11:42;;;;;;;6.20;4.17;;;;;;;25.61;95.88;100179.91;1701752;82;21823;-44
2021/06/26 06:14:08;;;;;;;9.73;5.80;;;;;;;25.63;92.96;100171.02;1707801;82;20999;-42
2021/06/26 06:16:37;;;;;;;7.05;4.67;;;;;;;25.65;93.40;100171.14;1708941;82;21565;-44
2021/06/26 06:19:04;;;;;;;7.28;4.85;;;;;;;25.67;94.07;100179.12;1711039;82;21453;-45
2021/06/26 06:21:30;;;;;;;7.22;4.62;;;;;;;25.68;95.14;100178.09;1703867;83;21675;-44
2021/06/26 06:23:57;;;;;;;10.95;4.30;;;;;;;25.68;95.48;100174.00;1697921;82;21113;-42
2021/06/26 06:26:23;;;;;;;10.53;4.92;;;;;;;25.72;95.55;100180.74;1707693;82;21073;-45
2021/06/26 06:28:50;;;;;;;7.12;4.42;;;;;;;25.73;94.96;100179.72;1703235;82;20990;-41
2021/06/26 06:31:18;;;;;;;6.30;4.03;;;;;;;25.77;96.71;100176.06;1696112;83;20982;-45
2021/06/26 06:33:45;;;;;;;5.20;4.25;;;;;;;25.79;98.27;100174.83;1713960;82;20979;-45
2021/06/26 06:36:12;;;;;;;8.70;5.40;;;;;;;25.82;97.88;100173.06;1713857;82;20987;-45
2021/06/26 06:38:39;;;;;;;8.85;4.92;;;;;;;25.84;95.84;100181.91;1707640;82;20972;-45
2021/06/26 06:41:05;;;;;;;6.30;4.45;;;;;;;25.87;95.00;100175.23;1702782;82;20978;-45
2021/06/26 06:43:32;;;;;;;8.75;5.37;;;;;;;25.88;96.34;100176.95;1705697;83;20968;-45
2021/06/26 06:45:59;;;;;;;6.45;4.47;;;;;;;25.89;96.94;100172.63;1713451;82;20971;-43
2021/06/26 06:48:26;;;;;;;7.55;4.47;;;;;;;25.91;98.03;100171.09;1719454;82;21952;-45
2021/06/26 06:50:54;;;;;;;9.65;5.92;;;;;;;25.94;99.58;100176.14;1715434;83;21016;-43
2021/06/26 06:53:20;;;;;;;10.15;5.15;;;;;;;25.95;98.35;100172.89;1710152;82;20983;-43
2021/06/26 06:55:58;;;;;;;5.60;5.03;;;;;;;25.96;97.45;100174.07;1704880;83;20990;-42
2021/06/26 06:58:16;;;;;;;9.85;5.42;;;;;;;25.98;96.75;100166.53;1710312;83;20968;-42
2021/06/26 07:00:43;;;;;;;10.00;6.60;;;;;;;25.99;94.04;100162.74;1700678;83;20978;-42
2021/06/26 07:03:09;;;;;;;8.65;5.25;;;;;;;26.01;95.67;100164.77;1693495;83;20951;-43
2021/06/26 07:05:36;;;;;;;9.50;4.87;;;;;;;26.05;96.23;100159.20;1694363;83;21047;-42
2021/06/26 07:08:03;;;;;;;8.35;4.58;;;;;;;26.09;95.73;100158.30;1691085;83;21030;-42
2021/06/26 07:10:30;;;;;;;7.08;5.35;;;;;;;26.15;96.13;100159.39;1685965;83;20991;-44
2021/06/26 07:12:56;;;;;;;10.00;5.37;;;;;;;26.19;94.65;100162.89;1699176;83;21018;-44
2021/06/26 07:15:23;;;;;;;7.42;4.78;;;;;;;26.23;93.47;100159.23;1696614;83;21753;-41
2021/06/26 07:17:50;;;;;;;8.60;5.40;;;;;;;26.28;95.52;100168.54;1721745;82;20985;-42
2021/06/26 07:20:17;;;;;;;9.88;5.97;;;;;;;26.36;98.29;100165.30;1697048;83;20990;-41
2021/06/26 07:22:44;;;;;;;8.10;4.97;;;;;;;26.39;96.09;100160.30;1706024;83;21542;-43
2021/06/26 07:25:11;;;;;;;11.08;5.50;;;;;;;26.40;95.44;100157.03;1698817;83;21032;-41
2021/06/26 07:27:38;;;;;;;11.83;5.10;;;;;;;26.41;94.49;100154.12;1699572;83;20972;-40
2021/06/26 07:30:08;;;;;;;11.28;5.22;;;;;;;26.42;93.75;100158.52;1716720;82;21038;-42
2021/06/26 07:32:35;;;;;;;8.28;5.30;;;;;;;26.44;94.99;100152.87;1707222;82;21003;-41
2021/06/26 07:35:02;;;;;;;11.78;5.75;;;;;;;26.46;95.83;100150.75;1707817;82;21867;-41
2021/06/26 07:37:29;;;;;;;7.40;5.87;;;;;;;26.50;97.19;100153.42;1705290;82;21011;-41
2021/06/26 07:39:55;;;;;;;8.63;5.05;;;;;;;26.52;98.10;100148.59;1710306;83;20974;-41
2021/06/26 07:42:22;;;;;;;6.33;5.17;;;;;;;26.55;97.70;100151.80;1701328;83;20974;-41
2021/06/26 07:44:49;;;;;;;8.05;4.95;;;;;;;26.60;97.59;100147.09;1701671;82;20972;-41
2021/06/26 07:47:15;;;;;;;9.00;5.75;;;;;;;26.63;96.85;100137.11;1710322;83;21017;-42
2021/06/26 07:49:43;;;;;;;10.60;7.78;;;;;;;26.67;98.17;100134.84;1708970;82;21019;-41
2021/06/26 07:52:09;;;;;;;9.53;6.97;;;;;;;26.69;99.17;100136.31;1704930;83;20963;-43
2021/06/26 07:54:36;;;;;;;9.38;6.17;;;;;;;26.74;100.00;100141.18;1704440;82;20981;-45
2021/06/26 07:57:04;;;;;;;9.08;5.62;;;;;;;26.77;100.00;100143.50;1710237;83;20955;-46
2021/06/26 07:59:33;;;;;;;8.53;5.65;;;;;;;26.83;100.00;100153.61;1715654;82;21901;-43
2021/06/26 08:01:59;;;;;;;9.58;6.75;;;;;;;26.87;98.89;100152.70;1710982;83;21551;-43
2021/06/26 08:04:26;;;;;;;7.95;4.55;;;;;;;26.91;98.38;100153.95;1695396;83;20991;-44
2021/06/26 08:06:52;;;;;;;9.80;5.55;;;;;;;26.93;97.68;100147.77;1710169;82;20981;-42
2021/06/26 08:09:19;;;;;;;7.92;5.72;;;;;;;26.94;95.77;100139.37;1720428;82;20938;-43
2021/06/26 08:11:46;;;;;;;6.65;5.78;;;;;;;26.97;95.64;100143.05;1715862;83;21425;-41
2021/06/26 08:14:12;;;;;;;7.12;5.10;;;;;;;26.98;95.62;100141.99;1715211;82;20972;-44
2021/06/26 08:16:39;;;;;;;10.58;5.45;;;;;;;26.99;95.87;100134.66;1711010;83;20967;-43
2021/06/26 08:19:07;;;;;;;12.45;6.30;;;;;;;27.00;97.31;100134.12;1710090;83;20936;-43
2021/06/26 08:21:34;;;;;;;7.47;5.45;;;;;;;27.02;98.26;100130.66;1712603;83;21443;-43
2021/06/26 08:24:00;;;;;;;9.50;5.35;;;;;;;27.03;98.95;100126.34;1708247;83;21031;-44
2021/06/26 08:26:27;;;;;;;10.58;5.80;;;;;;;27.06;100.00;100132.76;1713415;83;20989;-44
2021/06/26 08:28:54;;;;;;;10.70;5.72;;;;;;;27.08;99.03;100129.83;1704786;82;21220;-41
2021/06/26 08:31:21;;;;;;;9.33;5.47;;;;;;;27.11;99.55;100123.94;1701983;82;21016;-41
2021/06/26 08:33:47;;;;;;;9.03;5.65;;;;;;;27.15;99.37;100127.96;1700784;82;21542;-41
2021/06/26 08:36:14;;;;;;;11.88;5.28;;;;;;;27.22;100.00;100124.75;1677671;83;21051;-42
2021/06/26 08:38:41;;;;;;;6.87;5.03;;;;;;;27.29;100.00;100126.11;1706266;82;21004;-40
2021/06/26 08:41:07;;;;;;;6.08;4.78;;;;;;;27.35;100.00;100128.87;1705769;83;21471;-39
2021/06/26 08:43:34;;;;;;;9.43;5.70;;;;;;;27.43;100.00;100132.47;1710751;83;20987;-46
2021/06/26 08:46:00;;;;;;;13.90;6.50;;;;;;;27.51;100.00;100130.36;1702931;82;21046;-45
2021/06/26 08:48:27;;;;;;;6.78;5.15;;;;;;;27.58;98.34;100126.27;1715393;82;21387;-43
2021/06/26 08:50:54;;;;;;;11.40;5.60;;;;;;;27.63;95.58;100125.12;1715142;82;21027;-44
2021/06/26 08:53:21;;;;;;;10.55;5.75;;;;;;;27.68;94.89;100131.34;1704091;83;21793;-45
2021/06/26 08:55:52;;;;;;;12.78;5.90;;;;;;;27.71;94.79;100124.06;1701837;83;20924;-43
2021/06/26 08:58:16;;;;;;;9.08;6.00;;;;;;;27.75;94.15;100123.44;1696264;83;21009;-43
2021/06/26 09:00:42;;;;;;;10.28;5.60;;;;;;;27.78;95.31;100121.64;1703166;83;21008;-43
2021/06/26 09:03:11;;;;;;;9.53;5.80;;;;;;;27.80;95.93;100115.44;1700859;83;20948;-42
2021/06/26 09:05:38;;;;;;;10.47;6.00;;;;;;;27.83;96.51;100115.57;1692037;83;20962;-45
2021/06/26 09:08:18;;;;;;;7.62;6.15;;;;;;;27.85;96.97;100114.00;1692881;83;21486;-44
2021/06/26 09:10:48;;;;;;;6.05;5.08;;;;;;;27.86;96.48;100114.30;1693476;83;21043;-42
2021/06/26 09:13:24;;;;;;;7.03;5.87;;;;;;;27.87;95.52;100111.87;1703033;83;21926;-41
2021/06/26 09:16:09;;;;;;;7.60;5.90;;;;;;;27.90;95.77;100105.99;1703392;83;21030;-41
2021/06/26 09:18:48;;;;;;;11.00;5.28;;;;;;;27.92;94.25;100103.86;1694758;83;20938;-46
2021/06/26 09:21:32;;;;;;;13.98;6.17;;;;;;;27.94;93.38;100102.59;1702652;83;20933;-43
2021/06/26 09:24:06;;;;;;;9.38;6.10;;;;;;;27.97;92.04;100096.71;1697006;83;21026;-44
2021/06/26 09:26:38;;;;;;;7.00;6.15;;;;;;;28.01;94.06;100096.58;1697088;83;21000;-42
2021/06/26 09:29:17;;;;;;;10.95;6.78;;;;;;;28.08;95.61;100094.37;1660811;83;21052;-41
2021/06/26 09:31:55;;;;;;;5.58;5.08;;;;;;;28.14;97.34;100097.08;1708543;83;21712;-43
2021/06/26 09:34:23;;;;;;;8.15;6.00;;;;;;;28.20;95.52;100085.82;1695759;83;20971;-42
2021/06/26 09:37:05;;;;;;;6.90;5.75;;;;;;;28.28;94.21;100091.06;1713767;82;20971;-42
2021/06/26 09:39:40;;;;;;;7.95;5.70;;;;;;;28.35;94.08;100091.89;1714434;83;21015;-45
2021/06/26 09:42:26;;;;;;;9.38;6.50;;;;;;;28.41;91.59;100085.53;1714683;83;21047;-43
2021/06/26 09:45:12;;;;;;;7.08;5.87;;;;;;;28.50;90.27;100084.81;1716705;82;20960;-43
2021/06/26 09:47:44;;;;;;;8.33;6.55;;;;;;;28.56;91.86;100075.70;1716869;82;20980;-43
2021/06/26 09:50:25;;;;;;;10.25;5.65;;;;;;;28.64;88.47;100071.88;1703192;82;21007;-43
2021/06/26 09:53:03;;;;;;;8.90;6.17;;;;;;;28.72;86.37;100077.10;1697332;82;20987;-44
2021/06/26 09:55:35;;;;;;;8.13;5.28;;;;;;;28.80;83.80;100071.90;1686942;83;20979;-43
2021/06/26 09:58:15;;;;;;;10.38;6.37;;;;;;;28.89;83.96;100074.70;1693107;83;21000;-43
2021/06/26 10:00:42;;;;;;;7.35;5.37;;;;;;;28.97;82.56;100077.19;1700203;83;20966;-45
2021/06/26 10:03:13;;;;;;;12.33;5.28;;;;;;;29.05;81.01;100067.85;1701613;83;20999;-44
2021/06/26 10:05:42;;;;;;;6.70;4.87;;;;;;;29.15;80.95;100079.75;1698046;83;21003;-44
2021/06/26 10:08:09;;;;;;;9.90;5.05;;;;;;;29.22;82.59;100077.27;1693379;83;20967;-45
2021/06/26 10:10:36;;;;;;;7.50;5.40;;;;;;;29.28;82.03;100081.89;1694673;83;20975;-45
2021/06/26 10:13:02;;;;;;;8.08;5.20;;;;;;;29.33;83.95;100077.08;1692026;83;20963;-43
2021/06/26 10:15:33;;;;;;;9.88;5.20;;;;;;;29.37;82.72;100076.12;1700633;83;20982;-44
2021/06/26 10:18:00;;;;;;;5.97;5.47;;;;;;;29.42;81.57;100076.30;1672674;84;21316;-42
2021/06/26 10:20:27;;;;;;;9.28;5.97;;;;;;;29.45;83.22;100069.81;1684985;83;21459;-41
2021/06/26 10:22:58;;;;;;;7.67;5.53;;;;;;;29.50;85.05;100069.15;1691748;83;20971;-45
2021/06/26 10:25:32;;;;;;;6.83;6.00;;;;;;;29.54;84.82;100065.73;1698366;83;21051;-45
2021/06/26 10:28:08;;;;;;;11.12;6.45;;;;;;;29.60;83.04;100062.62;1697674;83;20955;-42
2021/06/26 10:30:36;;;;;;;7.10;5.67;;;;;;;29.65;84.60;100052.34;1695616;83;21000;-43
2021/06/26 10:33:06;;;;;;;7.35;5.60;;;;;;;29.68;83.85;100051.38;1696945;83;21035;-44
2021/06/26 10:35:35;;;;;;;7.30;5.70;;;;;;;29.73;84.18;100048.80;1695011;83;21338;-45
2021/06/26 10:38:12;;;;;;;8.85;5.53;;;;;;;29.80;86.90;100043.78;1686039;83;20995;-47
2021/06/26 10:40:49;;;;;;;7.85;5.05;;;;;;;29.83;87.59;100037.30;1685044;83;21054;-48
2021/06/26 10:43:31;;;;;;;12.60;5.58;;;;;;;29.85;85.51;100024.17;1710726;82;21573;-44
2021/06/26 10:46:11;;;;;;;9.93;6.00;;;;;;;29.88;83.91;100020.97;1706250;83;21039;-44
2021/06/26 10:48:40;;;;;;;;;;;;;;;29.95;85.13;100023.12;1703630;82;21015;-42
2021/06/26 10:51:10;;;;;;;6.90;5.62;;;;;;;30.01;83.30;100019.98;1706928;82;20139;-42
2021/06/26 10:53:41;;;;;;;7.03;4.80;;;;;;;30.04;82.31;100015.43;1709314;82;21562;-45
2021/06/26 10:56:12;;;;;;;6.80;4.78;;;;;;;30.08;77.21;99999.31;1705583;83;20945;-45
2021/06/26 10:58:44;;;;;;;6.08;5.20;;;;;;;30.13;76.20;99998.09;1702142;83;20990;-42
2021/06/26 11:01:23;;;;;;;6.90;6.00;;;;;;;30.19;79.68;99992.52;1704674;82;21506;-46
2021/06/26 11:04:09;;;;;;;8.98;5.72;;;;;;;30.25;77.94;99992.70;1705570;82;21014;-46
2021/06/26 11:06:38;;;;;;;7.83;4.70;;;;;;;30.30;77.69;99992.84;1697156;82;21397;-45
2021/06/26 11:09:07;;;;;;;7.33;4.80;;;;;;;30.35;72.32;99995.74;1699015;82;20954;-44
2021/06/26 11:11:40;;;;;;;7.80;4.80;;;;;;;30.43;72.21;99995.96;1715026;82;20965;-43
2021/06/26 11:14:21;;;;;;;7.83;5.03;;;;;;;30.50;73.77;99997.55;1707489;82;21066;-42
2021/06/26 11:16:55;;;;;;;5.78;4.95;;;;;;;30.55;76.20;100000.44;1696612;83;21375;-44
2021/06/26 11:19:30;;;;;;;6.75;4.60;;;;;;;30.58;76.68;100010.13;1693029;83;21475;-43
2021/06/26 11:21:57;;;;;;;7.37;4.00;;;;;;;30.61;75.48;100002.79;1700816;83;20967;-44
2021/06/26 11:24:37;;;;;;;5.95;4.92;;;;;;;30.61;74.94;100005.54;1694751;83;20978;-42
2021/06/26 11:27:05;;;;;;;;;;;;;;;30.62;72.88;100003.11;1694089;83;21079;-44
2021/06/26 11:29:37;;;;;;;7.00;5.42;;;;;;;30.62;76.24;99998.44;1689332;83;20400;-45
2021/06/26 11:32:23;;;;;;;8.68;5.25;;;;;;;30.62;73.65;99994.32;1696076;83;20997;-43